createdAt,value
2018-10-21T00:00:45.380Z,7.96
2018-10-21T00:03:18.011Z,7.88
2018-10-21T00:05:49.177Z,7.85
2018-10-21T00:08:20.406Z,7.83
2018-10-21T00:10:51.553Z,7.59
2018-10-21T00:13:23.120Z,7.31
2018-10-21T00:15:54.759Z,7.02
2018-10-21T00:18:26.361Z,6.74
2018-10-21T00:20:57.583Z,6.50
2018-10-21T00:23:28.911Z,6.26
2018-10-21T00:26:00.101Z,6.26
2018-10-21T00:28:31.606Z,6.24
2018-10-21T00:31:02.798Z,6.25
2018-10-21T00:33:34.312Z,6.57
2018-10-21T00:36:05.871Z,6.62
2018-10-21T00:38:37.091Z,6.47
2018-10-21T00:41:09.410Z,6.46
2018-10-21T00:43:40.718Z,6.70
2018-10-21T00:46:12.323Z,6.68
2018-10-21T00:48:43.762Z,6.69
2018-10-21T00:51:15.243Z,6.64
2018-10-21T00:53:46.739Z,6.67
2018-10-21T00:56:18.306Z,6.67
2018-10-21T00:58:49.773Z,6.54
2018-10-21T01:01:21.260Z,6.28
2018-10-21T01:03:52.807Z,6.13
2018-10-21T01:06:23.968Z,6.11
2018-10-21T01:08:55.121Z,6.16
2018-10-21T01:11:26.785Z,6.22
2018-10-21T01:13:58.042Z,6.33
2018-10-21T01:16:29.585Z,6.51
2018-10-21T01:19:01.031Z,6.67
2018-10-21T01:21:32.128Z,6.74
2018-10-21T01:24:03.289Z,6.86
2018-10-21T01:26:34.850Z,7.01
2018-10-21T01:29:06.001Z,7.09
2018-10-21T01:31:37.176Z,7.18
2018-10-21T01:34:08.505Z,7.30
2018-10-21T01:36:40.205Z,7.38
2018-10-21T01:39:12.792Z,7.51
2018-10-21T01:41:43.888Z,7.55
2018-10-21T01:44:15.358Z,7.64
2018-10-21T01:46:46.523Z,7.76
2018-10-21T01:49:17.683Z,7.78
2018-10-21T01:51:48.835Z,7.82
2018-10-21T01:54:23.401Z,7.83
2018-10-21T01:56:54.596Z,7.81
2018-10-21T01:59:26.190Z,7.91
2018-10-21T02:01:58.126Z,8.00
2018-10-21T02:04:29.419Z,8.05
2018-10-21T02:07:01.025Z,8.11
2018-10-21T02:09:32.245Z,8.06
2018-10-21T02:12:03.348Z,8.09
2018-10-21T02:14:34.800Z,8.15
2018-10-21T02:17:06.317Z,8.08
2018-10-21T02:19:37.808Z,8.08
2018-10-21T02:22:09.315Z,8.08
2018-10-21T02:24:40.906Z,8.04
2018-10-21T02:27:12.127Z,8.07
2018-10-21T02:29:43.476Z,8.10
2018-10-21T02:32:14.605Z,7.99
2018-10-21T02:34:46.203Z,8.01
2018-10-21T02:37:17.712Z,8.01
2018-10-21T02:39:49.282Z,8.02
2018-10-21T02:42:20.911Z,7.91
2018-10-21T02:44:52.403Z,7.95
2018-10-21T02:47:24.435Z,7.93
2018-10-21T02:49:55.587Z,7.95
2018-10-21T02:52:27.082Z,8.00
2018-10-21T02:54:58.575Z,8.04
2018-10-21T02:57:29.731Z,8.10
2018-10-21T03:00:01.515Z,8.08
2018-10-21T03:02:32.651Z,8.01
2018-10-21T03:05:03.802Z,7.95
2018-10-21T03:07:35.760Z,7.87
2018-10-21T03:10:07.223Z,7.71
2018-10-21T03:12:39.035Z,7.66
2018-10-21T03:15:10.209Z,7.63
2018-10-21T03:17:41.329Z,7.60
2018-10-21T03:20:12.487Z,7.55
2018-10-21T03:22:43.672Z,7.52
2018-10-21T03:25:14.827Z,7.47
2018-10-21T03:27:45.963Z,7.48
2018-10-21T03:30:17.108Z,7.44
2018-10-21T03:32:48.644Z,7.43
2018-10-21T03:35:20.047Z,7.51
2018-10-21T03:37:51.589Z,7.46
2018-10-21T03:40:23.364Z,7.46
2018-10-21T03:42:55.361Z,7.51
2018-10-21T03:45:27.236Z,7.50
2018-10-21T03:47:58.436Z,7.51
2018-10-21T03:50:29.891Z,7.57
2018-10-21T03:53:01.077Z,7.66
2018-10-21T03:55:34.025Z,7.69
2018-10-21T03:58:05.966Z,7.71
2018-10-21T04:00:37.575Z,7.69
2018-10-21T04:03:09.240Z,7.65
2018-10-21T04:05:40.812Z,7.71
2018-10-21T04:08:11.974Z,7.75
2018-10-21T04:10:43.127Z,7.76
2018-10-21T04:13:14.300Z,7.78
2018-10-21T04:15:45.520Z,7.86
2018-10-21T04:18:16.956Z,7.89
2018-10-21T04:20:48.380Z,7.97
2018-10-21T04:23:19.538Z,8.02
2018-10-21T04:25:50.963Z,8.05
2018-10-21T04:28:22.166Z,8.04
2018-10-21T04:30:53.508Z,8.04
2018-10-21T04:33:43.327Z,8.07
2018-10-21T04:36:16.182Z,8.03
2018-10-21T04:39:57.066Z,7.96
2018-10-21T04:42:28.770Z,7.89
2018-10-21T04:45:00.033Z,7.91
2018-10-21T04:47:31.563Z,7.97
2018-10-21T04:50:02.745Z,8.06
2018-10-21T04:52:34.548Z,8.09
2018-10-21T04:55:16.137Z,8.12
2018-10-21T04:57:48.834Z,8.08
2018-10-21T05:00:21.292Z,8.02
2018-10-21T05:02:52.535Z,7.97
2018-10-21T05:05:23.647Z,7.93
2018-10-21T05:07:55.408Z,7.95
2018-10-21T05:10:37.663Z,7.84
2018-10-21T05:13:09.698Z,7.82
2018-10-21T05:15:41.558Z,7.80
2018-10-21T05:18:13.255Z,7.82
2018-10-21T05:20:44.863Z,7.80
2018-10-21T05:23:16.520Z,7.77
2018-10-21T05:25:48.108Z,7.72
2018-10-21T05:28:20.079Z,7.70
2018-10-21T05:30:51.225Z,7.76
2018-10-21T05:33:22.401Z,7.82
2018-10-21T05:35:53.987Z,7.85
2018-10-21T05:38:25.797Z,7.85
2018-10-21T05:40:57.000Z,7.84
2018-10-21T05:43:28.533Z,7.87
2018-10-21T05:45:59.830Z,7.79
2018-10-21T05:48:30.955Z,7.80
2018-10-21T05:51:02.611Z,7.77
2018-10-21T05:53:33.741Z,7.77
2018-10-21T05:56:05.223Z,7.83
2018-10-21T05:58:36.361Z,7.92
2018-10-21T06:01:07.543Z,8.06
2018-10-21T06:03:39.017Z,8.16
2018-10-21T06:06:11.121Z,8.16
2018-10-21T06:08:42.287Z,8.08
2018-10-21T06:11:13.993Z,7.93
2018-10-21T06:13:45.448Z,7.62
2018-10-21T06:16:18.075Z,7.44
2018-10-21T06:18:49.731Z,7.41
2018-10-21T06:21:20.950Z,7.45
2018-10-21T06:23:52.541Z,7.54
2018-10-21T06:26:23.641Z,7.68
2018-10-21T06:28:54.813Z,7.82
2018-10-21T06:31:26.100Z,7.95
2018-10-21T06:33:57.304Z,8.14
2018-10-21T06:36:28.683Z,8.24
2018-10-21T06:39:00.277Z,8.32
2018-10-21T06:41:31.828Z,8.42
2018-10-21T06:44:03.233Z,8.55
2018-10-21T06:46:35.143Z,8.69
2018-10-21T06:49:07.004Z,8.75
2018-10-21T06:51:38.615Z,8.89
2018-10-21T06:54:09.802Z,9.28
2018-10-21T06:56:41.099Z,9.51
2018-10-21T06:59:12.597Z,9.31
2018-10-21T07:01:44.186Z,9.15
2018-10-21T07:04:15.996Z,8.91
2018-10-21T07:06:47.228Z,8.90
2018-10-21T07:09:18.809Z,9.30
2018-10-21T07:11:50.314Z,10.15
2018-10-21T07:14:22.277Z,10.92
2018-10-21T07:16:53.478Z,11.57
2018-10-21T07:19:25.298Z,12.24
2018-10-21T07:21:56.721Z,12.22
2018-10-21T07:24:27.883Z,12.46
2018-10-21T07:26:59.266Z,12.70
2018-10-21T07:29:32.491Z,12.34
2018-10-21T07:32:04.058Z,13.09
2018-10-21T07:34:35.366Z,13.19
2018-10-21T07:37:07.098Z,13.54
2018-10-21T07:39:38.916Z,13.70
2018-10-21T07:42:10.260Z,14.46
2018-10-21T07:44:41.907Z,14.94
2018-10-21T07:47:13.609Z,14.75
2018-10-21T07:49:45.490Z,14.97
2018-10-21T07:52:17.669Z,15.27
2018-10-21T07:54:48.971Z,14.76
2018-10-21T07:57:20.335Z,15.24
2018-10-21T07:59:52.007Z,15.00
2018-10-21T08:02:23.406Z,15.38
2018-10-21T08:04:55.062Z,15.27
2018-10-21T08:08:25.618Z,15.66
2018-10-21T08:10:57.257Z,15.81
2018-10-21T08:13:28.955Z,15.67
2018-10-21T08:16:01.154Z,16.17
2018-10-21T08:18:32.807Z,16.67
2018-10-21T08:21:04.183Z,16.17
2018-10-21T08:23:36.283Z,16.45
2018-10-21T08:26:07.516Z,16.23
2018-10-21T08:28:42.162Z,16.09
2018-10-21T08:31:13.427Z,16.79
2018-10-21T08:33:45.333Z,17.13
2018-10-21T08:36:16.790Z,17.53
2018-10-21T08:38:48.329Z,17.75
2018-10-21T08:41:19.518Z,17.99
2018-10-21T08:43:50.686Z,18.37
2018-10-21T08:46:22.314Z,17.46
2018-10-21T08:48:53.317Z,17.62
2018-10-21T08:51:24.501Z,17.76
2018-10-21T08:53:55.956Z,17.98
2018-10-21T08:56:27.583Z,18.09
2018-10-21T08:59:00.255Z,18.27
2018-10-21T09:01:31.473Z,18.06
2018-10-21T09:04:02.834Z,18.44
2018-10-21T09:06:33.911Z,18.49
2018-10-21T09:09:06.037Z,18.26
2018-10-21T09:11:37.844Z,18.34
2018-10-21T09:14:09.005Z,18.18
2018-10-21T09:16:40.219Z,18.55
2018-10-21T09:19:11.448Z,18.53
2018-10-21T09:21:43.386Z,18.54
2018-10-21T09:24:15.285Z,18.14
2018-10-21T09:26:47.620Z,18.17
2018-10-21T09:29:18.879Z,17.78
2018-10-21T09:31:50.874Z,18.71
2018-10-21T09:34:22.758Z,18.93
2018-10-21T09:36:54.340Z,18.65
2018-10-21T09:39:25.590Z,18.95
2018-10-21T09:41:56.777Z,18.94
2018-10-21T09:44:27.950Z,18.90
2018-10-21T09:46:59.140Z,18.96
2018-10-21T09:49:30.334Z,18.82
2018-10-21T09:52:01.521Z,18.75
2018-10-21T09:54:32.767Z,19.47
2018-10-21T09:57:03.987Z,19.65
2018-10-21T09:59:35.431Z,19.68
2018-10-21T10:02:24.276Z,19.88
2018-10-21T10:04:56.076Z,19.52
2018-10-21T10:07:27.984Z,19.85
2018-10-21T10:09:59.230Z,19.98
2018-10-21T10:12:30.794Z,20.44
2018-10-21T10:15:01.981Z,20.15
2018-10-21T10:17:33.602Z,20.15
2018-10-21T10:20:04.717Z,20.50
2018-10-21T10:22:35.902Z,19.74
2018-10-21T10:25:08.479Z,20.63
2018-10-21T10:27:43.113Z,19.87
2018-10-21T10:30:15.040Z,19.36
2018-10-21T10:32:46.519Z,19.72
2018-10-21T10:35:17.852Z,19.80
2018-10-21T10:37:49.048Z,20.04
2018-10-21T10:40:23.428Z,20.07
2018-10-21T10:42:54.944Z,20.60
2018-10-21T10:45:26.426Z,20.54
2018-10-21T10:48:03.207Z,20.59
2018-10-21T10:50:35.880Z,20.79
2018-10-21T10:53:07.392Z,20.76
2018-10-21T10:55:52.212Z,20.46
2018-10-21T10:58:23.928Z,20.11
2018-10-21T11:00:55.763Z,19.71
2018-10-21T11:03:27.374Z,20.12
2018-10-21T11:05:58.590Z,20.30
2018-10-21T11:08:30.165Z,19.97
2018-10-21T11:11:01.609Z,20.84
2018-10-21T11:13:33.417Z,21.14
2018-10-21T11:16:04.679Z,20.95
2018-10-21T11:18:36.129Z,21.29
2018-10-21T11:21:08.237Z,21.75
2018-10-21T11:23:39.706Z,21.51
2018-10-21T11:26:10.888Z,21.89
2018-10-21T11:28:42.721Z,22.51
2018-10-21T11:31:15.642Z,22.38
2018-10-21T11:33:47.250Z,22.51
2018-10-21T11:36:18.445Z,21.30
2018-10-21T11:38:49.689Z,21.94
2018-10-21T11:41:20.884Z,21.30
2018-10-21T11:43:52.414Z,21.79
2018-10-21T11:46:23.651Z,22.13
2018-10-21T11:48:54.775Z,21.60
2018-10-21T11:51:26.031Z,19.64
2018-10-21T11:53:57.430Z,20.07
2018-10-21T11:56:28.617Z,19.62
2018-10-21T11:59:00.198Z,19.22
2018-10-21T12:01:31.374Z,18.83
2018-10-21T12:04:02.892Z,18.55
2018-10-21T12:06:34.037Z,17.71
2018-10-21T12:09:05.854Z,18.03
2018-10-21T12:11:37.560Z,18.56
2018-10-21T12:14:09.521Z,18.93
2018-10-21T12:16:41.180Z,20.32
2018-10-21T12:19:12.774Z,20.08
2018-10-21T12:21:44.151Z,18.39
2018-10-21T12:24:15.350Z,17.96
2018-10-21T12:26:46.605Z,17.50
2018-10-21T12:29:17.847Z,16.44
2018-10-21T12:31:49.261Z,15.61
2018-10-21T12:34:20.821Z,14.91
2018-10-21T12:36:52.010Z,14.86
2018-10-21T12:39:23.419Z,14.61
2018-10-21T12:41:55.196Z,14.49
2018-10-21T12:44:27.028Z,14.20
2018-10-21T12:46:58.728Z,15.06
2018-10-21T12:49:32.836Z,17.02
2018-10-21T12:52:04.741Z,17.85
2018-10-21T12:54:36.386Z,18.70
2018-10-21T12:57:07.533Z,19.67
2018-10-21T12:59:38.711Z,19.85
2018-10-21T13:02:09.903Z,20.06
2018-10-21T13:04:41.824Z,20.29
2018-10-21T13:07:13.290Z,20.24
2018-10-21T13:09:45.416Z,19.97
2018-10-21T13:12:16.865Z,20.24
2018-10-21T13:14:48.555Z,20.45
2018-10-21T13:17:20.166Z,20.31
2018-10-21T13:19:51.671Z,20.71
2018-10-21T13:22:23.207Z,20.39
2018-10-21T13:24:54.389Z,20.19
2018-10-21T13:27:25.817Z,20.14
2018-10-21T13:29:57.496Z,20.35
2018-10-21T13:32:29.035Z,20.90
2018-10-21T13:35:00.212Z,20.23
2018-10-21T13:37:31.769Z,19.82
2018-10-21T13:40:03.037Z,19.89
2018-10-21T13:42:34.795Z,20.22
2018-10-21T13:45:06.230Z,20.38
2018-10-21T13:47:37.801Z,20.18
2018-10-21T13:50:09.812Z,19.94
2018-10-21T13:52:41.082Z,20.31
2018-10-21T13:55:12.566Z,20.25
2018-10-21T13:57:43.681Z,19.79
2018-10-21T14:00:14.874Z,19.61
2018-10-21T14:02:46.639Z,19.41
2018-10-21T14:05:17.802Z,18.33
2018-10-21T14:07:49.023Z,17.89
2018-10-21T14:10:20.194Z,16.80
2018-10-21T14:12:51.359Z,17.42
2018-10-21T14:15:22.735Z,18.00
2018-10-21T14:17:54.462Z,18.40
2018-10-21T14:20:26.120Z,18.59
2018-10-21T14:22:57.792Z,18.60
2018-10-21T14:25:29.737Z,18.67
2018-10-21T14:28:01.168Z,18.95
2018-10-21T14:30:32.415Z,18.95
2018-10-21T14:33:03.629Z,18.52
2018-10-21T14:35:35.387Z,18.15
2018-10-21T14:38:06.574Z,17.31
2018-10-21T14:40:38.172Z,16.18
2018-10-21T14:43:09.800Z,15.44
2018-10-21T14:45:41.095Z,15.13
2018-10-21T14:48:12.267Z,14.84
2018-10-21T14:50:44.332Z,14.66
2018-10-21T14:53:15.536Z,14.62
2018-10-21T14:55:46.719Z,14.56
2018-10-21T14:58:18.894Z,14.52
2018-10-21T15:00:50.142Z,14.42
2018-10-21T15:03:21.626Z,14.47
2018-10-21T15:05:52.776Z,14.30
2018-10-21T15:08:24.288Z,14.15
2018-10-21T15:10:55.760Z,14.12
2018-10-21T15:13:27.413Z,14.12
2018-10-21T15:15:59.094Z,13.99
2018-10-21T15:18:30.935Z,13.92
2018-10-21T15:21:03.298Z,13.95
2018-10-21T15:23:35.028Z,14.03
2018-10-21T15:26:06.674Z,13.89
2018-10-21T15:28:38.971Z,13.75
2018-10-21T15:31:10.482Z,13.57
2018-10-21T15:33:42.011Z,13.37
2018-10-21T15:36:14.029Z,13.23
2018-10-21T15:38:45.587Z,13.01
2018-10-21T15:41:17.470Z,12.94
2018-10-21T15:43:48.988Z,12.92
2018-10-21T15:46:20.688Z,12.87
2018-10-21T15:48:52.498Z,13.03
2018-10-21T15:51:24.002Z,13.13
2018-10-21T15:53:55.613Z,13.05
2018-10-21T15:56:26.791Z,12.85
2018-10-21T15:58:57.984Z,12.61
2018-10-21T16:01:29.144Z,12.24
2018-10-21T16:04:00.606Z,11.79
2018-10-21T16:06:31.821Z,11.45
2018-10-21T16:09:03.016Z,11.22
2018-10-21T16:11:34.182Z,11.02
2018-10-21T16:14:05.510Z,10.70
2018-10-21T16:16:37.303Z,10.31
2018-10-21T16:19:09.110Z,9.90
2018-10-21T16:21:40.815Z,9.65
2018-10-21T16:24:12.401Z,9.46
2018-10-21T16:26:43.865Z,9.30
2018-10-21T16:29:15.994Z,8.98
2018-10-21T16:31:47.420Z,8.72
2018-10-21T16:34:18.912Z,8.50
2018-10-21T16:36:49.951Z,8.46
2018-10-21T16:39:21.928Z,8.65
2018-10-21T16:41:53.137Z,8.76
2018-10-21T16:44:24.429Z,8.79
2018-10-21T16:46:55.730Z,8.76
2018-10-21T16:49:26.933Z,8.72
2018-10-21T16:51:58.552Z,8.65
2018-10-21T16:54:29.888Z,8.61
2018-10-21T16:57:01.471Z,8.58
2018-10-21T16:59:32.666Z,8.47
2018-10-21T17:02:03.849Z,8.45
2018-10-21T17:04:35.986Z,8.31
2018-10-21T17:07:08.686Z,8.28
2018-10-21T17:09:40.674Z,8.22
2018-10-21T17:12:11.773Z,8.13
2018-10-21T17:14:43.045Z,8.00
2018-10-21T17:17:15.021Z,8.04
2018-10-21T17:19:46.948Z,7.98
2018-10-21T17:22:18.145Z,7.88
2018-10-21T17:24:49.779Z,7.75
2018-10-21T17:27:21.214Z,7.81
2018-10-21T17:29:52.629Z,7.75
2018-10-21T17:32:24.057Z,7.72
2018-10-21T17:34:55.335Z,7.74
2018-10-21T17:37:26.915Z,7.66
2018-10-21T17:39:58.181Z,7.64
2018-10-21T17:42:29.923Z,7.41
2018-10-21T17:45:01.210Z,7.30
2018-10-21T17:47:32.820Z,7.28
2018-10-21T17:50:04.444Z,7.14
2018-10-21T17:52:36.135Z,7.13
2018-10-21T17:55:07.380Z,7.08
2018-10-21T17:57:39.037Z,7.08
2018-10-21T18:00:12.941Z,6.99
2018-10-21T18:02:44.324Z,7.06
2018-10-21T18:05:16.481Z,7.14
2018-10-21T18:07:47.646Z,7.11
2018-10-21T18:10:18.916Z,7.16
2018-10-21T18:12:50.234Z,7.26
2018-10-21T18:15:21.651Z,7.28
2018-10-21T18:17:53.515Z,7.26
2018-10-21T18:20:25.316Z,7.20
2018-10-21T18:22:56.812Z,7.11
2018-10-21T18:25:28.011Z,6.96
2018-10-21T18:27:59.526Z,6.81
2018-10-21T18:30:31.034Z,6.78
2018-10-21T18:33:02.261Z,6.69
2018-10-21T18:35:33.449Z,6.67
2018-10-21T18:38:05.008Z,6.58
2018-10-21T18:40:36.242Z,6.64
2018-10-21T18:43:07.453Z,6.69
2018-10-21T18:45:38.901Z,6.73
2018-10-21T18:48:10.134Z,6.82
2018-10-21T18:50:41.658Z,6.81
2018-10-21T18:53:13.154Z,6.89
2018-10-21T18:55:45.188Z,6.92
2018-10-21T18:58:16.677Z,6.89
2018-10-21T19:00:47.830Z,6.91
2018-10-21T19:03:19.334Z,6.83
2018-10-21T19:05:50.500Z,6.78
2018-10-21T19:08:21.657Z,6.76
2018-10-21T19:10:53.528Z,6.76
2018-10-21T19:13:24.731Z,6.64
2018-10-21T19:15:56.441Z,6.60
2018-10-21T19:18:28.272Z,6.62
2018-10-21T19:20:59.472Z,6.66
2018-10-21T19:23:30.885Z,6.70
2018-10-21T19:26:02.058Z,6.72
2018-10-21T19:28:33.439Z,6.75
2018-10-21T19:31:04.697Z,6.71
2018-10-21T19:33:36.233Z,6.62
2018-10-21T19:36:07.728Z,6.56
2018-10-21T19:38:38.875Z,6.51
2018-10-21T19:41:10.017Z,6.33
2018-10-21T19:43:41.181Z,6.20
2018-10-21T19:46:12.415Z,6.25
2018-10-21T19:48:43.513Z,6.22
2018-10-21T19:51:15.135Z,6.15
2018-10-21T19:53:46.261Z,6.18
2018-10-21T19:56:17.702Z,6.27
2018-10-21T19:58:48.901Z,6.39
2018-10-21T20:01:20.514Z,6.39
2018-10-21T20:03:52.656Z,6.21
2018-10-21T20:06:23.883Z,6.11
2018-10-21T20:08:55.645Z,6.10
2018-10-21T20:11:26.877Z,5.99
2018-10-21T20:13:58.053Z,6.06
2018-10-21T20:16:29.655Z,6.00
2018-10-21T20:19:00.835Z,6.11
2018-10-21T20:21:31.968Z,6.15
2018-10-21T20:24:03.431Z,6.11
2018-10-21T20:26:34.630Z,6.05
2018-10-21T20:29:05.777Z,6.27
2018-10-21T20:31:37.033Z,6.55
2018-10-21T20:34:08.694Z,6.71
2018-10-21T20:36:39.856Z,6.68
2018-10-21T20:39:12.056Z,6.59
2018-10-21T20:41:43.301Z,6.54
2018-10-21T20:44:14.496Z,6.36
2018-10-21T20:46:45.714Z,6.28
2018-10-21T20:49:17.753Z,6.06
2018-10-21T20:51:49.447Z,5.87
2018-10-21T20:54:21.307Z,5.77
2018-10-21T20:56:52.505Z,5.85
2018-10-21T20:59:24.727Z,5.93
2018-10-21T21:01:56.220Z,6.00
2018-10-21T21:04:27.763Z,5.99
2018-10-21T21:06:59.022Z,6.08
2018-10-21T21:09:30.244Z,6.15
2018-10-21T21:12:01.447Z,6.16
2018-10-21T21:14:33.021Z,6.25
2018-10-21T21:17:05.127Z,6.30
2018-10-21T21:19:36.309Z,6.13
2018-10-21T21:22:07.489Z,5.99
2018-10-21T21:24:38.624Z,5.79
2018-10-21T21:27:10.005Z,5.66
2018-10-21T21:29:42.635Z,5.53
2018-10-21T21:32:13.820Z,5.35
2018-10-21T21:34:46.289Z,5.31
2018-10-21T21:37:19.636Z,5.27
2018-10-21T21:39:51.079Z,5.33
2018-10-21T21:42:22.482Z,5.42
2018-10-21T21:44:53.627Z,5.49
2018-10-21T21:47:24.782Z,5.61
2018-10-21T21:49:55.916Z,5.52
2018-10-21T21:52:27.500Z,5.30
2018-10-21T21:54:58.655Z,5.20
2018-10-21T21:57:30.401Z,5.14
2018-10-21T22:00:01.610Z,5.11
2018-10-21T22:02:32.987Z,5.24
2018-10-21T22:05:04.181Z,5.33
2018-10-21T22:07:35.904Z,5.36
2018-10-21T22:10:07.380Z,5.28
2018-10-21T22:12:38.946Z,5.37
2018-10-21T22:15:10.105Z,5.49
2018-10-21T22:17:42.213Z,5.23
2018-10-21T22:20:14.408Z,5.16
2018-10-21T22:22:45.620Z,5.20
2018-10-21T22:25:16.879Z,5.10
2018-10-21T22:27:48.152Z,4.95
2018-10-21T22:30:19.330Z,4.78
2018-10-21T22:32:50.483Z,4.83
2018-10-21T22:35:21.670Z,4.76
2018-10-21T22:37:52.863Z,4.71
2018-10-21T22:40:24.349Z,4.89
2018-10-21T22:42:55.937Z,4.85
2018-10-21T22:45:27.076Z,4.86
2018-10-21T22:47:58.646Z,4.74
2018-10-21T22:50:29.768Z,4.59
2018-10-21T22:53:00.930Z,4.55
2018-10-21T22:55:32.337Z,4.53
2018-10-21T22:58:03.518Z,4.51
2018-10-21T23:00:35.084Z,4.69
2018-10-21T23:03:06.354Z,4.86
2018-10-21T23:05:38.073Z,4.94
2018-10-21T23:08:09.341Z,5.02
2018-10-21T23:10:40.497Z,5.05
2018-10-21T23:13:11.878Z,5.14
2018-10-21T23:15:43.013Z,4.97
2018-10-21T23:18:14.477Z,4.77
2018-10-21T23:20:45.827Z,4.50
2018-10-21T23:23:17.669Z,4.27
2018-10-21T23:25:48.825Z,4.38
2018-10-21T23:28:20.465Z,4.52
2018-10-21T23:30:51.951Z,4.56
2018-10-21T23:33:23.755Z,4.63
2018-10-21T23:35:54.902Z,4.63
2018-10-21T23:38:26.469Z,4.62
2018-10-21T23:40:57.618Z,4.66
2018-10-21T23:43:28.989Z,4.64
2018-10-21T23:46:00.620Z,4.69
2018-10-21T23:48:31.901Z,4.79
2018-10-21T23:51:03.043Z,4.92
2018-10-21T23:53:35.171Z,5.10
2018-10-21T23:56:06.352Z,5.25
2018-10-21T23:58:38.217Z,5.36
